Time;durP1;ratioP1;P1;durP2;ratioP2;P2;SDS_P1;SDS_P2;PMS_P1;PMS_P2;Temp;Humidity;BMP_temperature;BMP_pressure;BME280_temperature;BME280_humidity;BME280_pressure;Samples;Min_cycle;Max_cycle;Signal;HPM_P1;HPM_P2
2022/02/09 00:00:30;;;;;;;15.40;10.93;;;;;;;7.06;91.24;101229.42;1750822;81;21066;-71
2022/02/09 00:03:10;;;;;;;9.23;7.00;;;;;;;7.06;91.26;101233.40;1751794;82;21002;-71
2022/02/09 00:05:44;;;;;;;13.28;10.93;;;;;;;7.05;91.25;101229.05;1750080;80;21063;-72
2022/02/09 00:10:23;;;;;;;17.00;11.03;;;;;;;7.07;91.26;101239.55;1747119;81;21637;-72
2022/02/09 00:15:41;;;;;;;11.83;8.45;;;;;;;7.07;91.28;101248.35;1743462;82;21203;-72
2022/02/09 00:18:12;;;;;;;10.80;7.47;;;;;;;7.08;91.29;101251.82;1741857;81;21039;-72
2022/02/09 01:12:15;;;;;;;7.60;5.83;;;;;;;7.14;91.59;101278.70;1718598;82;20991;-71
2022/02/09 01:56:55;;;;;;;16.00;14.33;;;;;;;7.19;91.80;101281.80;1704653;83;21056;-71
2022/02/09 01:59:21;;;;;;;11.25;10.15;;;;;;;7.19;91.80;101287.11;1704511;83;21476;-71
2022/02/09 02:01:47;;;;;;;9.93;8.90;;;;;;;7.18;91.80;101286.74;1674373;85;22129;-72
2022/02/09 02:04:13;;;;;;;14.38;9.38;;;;;;;7.17;91.83;101289.06;1704546;84;21681;-72
2022/02/09 02:06:43;;;;;;;14.15;9.83;;;;;;;7.17;91.82;101293.04;1704701;83;20994;-71
2022/02/09 02:09:08;;;;;;;13.78;9.60;;;;;;;7.17;91.84;101285.08;1704848;82;20987;-71
2022/02/09 02:12:03;;;;;;;13.08;9.53;;;;;;;7.17;91.84;101282.91;1628480;87;21031;-71
2022/02/09 02:17:01;;;;;;;10.45;7.60;;;;;;;7.16;91.84;101282.06;1704522;84;20990;-72
2022/02/09 03:12:40;;;;;;;11.38;10.20;;;;;;;7.02;91.98;101279.70;1734969;81;21018;-72
2022/02/09 03:18:10;;;;;;;9.08;8.00;;;;;;;6.98;91.99;101285.73;1753245;81;21353;-72
2022/02/09 03:30:55;;;;;;;7.80;5.50;;;;;;;6.95;92.03;101294.42;1704757;84;21622;-72
2022/02/09 03:44:16;;;;;;;9.45;6.95;;;;;;;6.87;92.08;101287.56;1704961;84;20983;-72
2022/02/09 03:46:34;;;;;;;7.47;5.22;;;;;;;6.86;92.09;101289.38;1701244;83;21338;-71
2022/02/09 03:49:08;;;;;;;9.83;8.13;;;;;;;6.86;92.13;101281.93;1703318;83;21039;-72
2022/02/09 03:54:21;;;;;;;6.05;4.95;;;;;;;6.85;92.15;101294.81;1705040;84;20991;-72
2022/02/09 03:56:56;;;;;;;6.22;4.45;;;;;;;6.86;92.17;101289.88;1702927;84;21003;-72
2022/02/09 03:59:13;;;;;;;5.20;4.70;;;;;;;6.86;92.16;101289.88;1672785;85;21509;-72
2022/02/09 04:01:40;;;;;;;6.35;4.05;;;;;;;6.85;92.17;101287.71;1703030;84;20995;-72
2022/02/09 04:04:07;;;;;;;6.97;4.50;;;;;;;6.86;92.18;101292.53;1684050;85;21488;-72
2022/02/09 04:06:36;;;;;;;6.20;4.80;;;;;;;6.84;92.20;101283.84;1685298;85;21098;-72
2022/02/09 04:09:04;;;;;;;6.65;4.95;;;;;;;6.83;92.21;101286.97;1720056;83;21026;-72
2022/02/09 04:11:37;;;;;;;5.70;4.80;;;;;;;6.84;92.21;101285.17;1684901;84;21188;-72
2022/02/09 04:14:07;;;;;;;6.35;5.00;;;;;;;6.83;92.21;101284.80;1684399;85;21027;-72
2022/02/09 04:19:23;;;;;;;9.58;6.58;;;;;;;6.82;92.22;101281.33;1720109;83;21554;-72
2022/02/09 04:38:16;;;;;;;9.73;7.65;;;;;;;6.84;92.29;101273.23;1674948;85;21828;-72
2022/02/09 04:51:21;;;;;;;10.35;7.80;;;;;;;6.81;92.31;101268.19;1685196;84;21508;-71
2022/02/09 05:30:40;;;;;;;19.92;10.70;;;;;;;6.82;92.36;101274.70;1683892;85;21052;-71
2022/02/09 05:33:06;;;;;;;24.70;13.78;;;;;;;6.84;92.35;101270.59;1718247;83;21022;-71
2022/02/09 05:35:32;;;;;;;29.25;16.35;;;;;;;6.84;92.36;101270.59;1718566;83;21074;-71
2022/02/09 05:37:58;;;;;;;20.32;14.40;;;;;;;6.85;92.37;101274.93;1718542;83;21002;-71
2022/02/09 05:40:24;;;;;;;31.40;20.88;;;;;;;6.86;92.37;101279.28;1718694;83;21082;-71
2022/02/09 05:42:50;;;;;;;36.17;18.82;;;;;;;6.86;92.38;101276.63;1718598;83;21140;-71
2022/02/09 05:45:18;;;;;;;35.75;18.85;;;;;;;6.86;92.38;101276.11;1718271;83;21042;-71
2022/02/09 05:50:36;;;;;;;22.37;13.10;;;;;;;6.87;92.35;101284.44;1718248;83;21475;-71
2022/02/09 05:55:45;;;;;;;61.70;20.20;;;;;;;6.90;92.34;101285.98;1671000;85;21136;-71
2022/02/09 05:58:14;;;;;;;54.83;19.45;;;;;;;6.89;92.32;101279.02;1682236;85;21075;-71
2022/02/09 06:00:35;;;;;;;35.40;16.30;;;;;;;6.90;92.32;101287.31;1681822;85;21043;-71
2022/02/09 06:03:01;;;;;;;26.68;14.07;;;;;;;6.91;92.30;101291.18;1718715;83;20982;-71
2022/02/09 06:05:28;;;;;;;21.95;12.55;;;;;;;6.90;92.30;101291.29;1718607;83;21455;-71
2022/02/09 06:07:54;;;;;;;23.02;11.80;;;;;;;6.88;92.28;101297.22;1684035;85;21813;-71
2022/02/09 06:10:26;;;;;;;15.28;10.50;;;;;;;6.87;92.28;101294.20;1684446;85;21035;-71
2022/02/09 06:13:05;;;;;;;21.75;13.25;;;;;;;6.86;92.27;101300.48;1683928;84;21463;-71
2022/02/09 06:16:00;;;;;;;15.98;10.05;;;;;;;6.83;92.26;101296.25;1682127;85;21039;-71
2022/02/09 06:20:34;;;;;;;15.43;10.08;;;;;;;6.83;92.25;101308.66;1670808;85;21057;-71
2022/02/09 06:23:00;;;;;;;21.25;12.25;;;;;;;6.82;92.25;101313.62;1670627;84;21059;-71
2022/02/09 06:25:26;;;;;;;17.73;9.83;;;;;;;6.81;92.25;101314.11;1648432;85;21521;-70
2022/02/09 06:27:52;;;;;;;16.90;10.18;;;;;;;6.82;92.26;101316.28;1666017;84;21906;-71
2022/02/09 06:30:18;;;;;;;20.20;11.70;;;;;;;6.82;92.25;101319.77;1704530;84;21006;-71
2022/02/09 06:32:44;;;;;;;23.55;11.75;;;;;;;6.81;92.25;101310.61;1704612;82;21077;-71
2022/02/09 06:35:11;;;;;;;17.00;10.18;;;;;;;6.81;92.26;101318.56;1704263;83;20998;-71
2022/02/09 06:37:44;;;;;;;15.80;10.25;;;;;;;6.81;92.26;101315.91;1704571;84;20994;-71
2022/02/09 06:40:10;;;;;;;14.15;8.78;;;;;;;6.81;92.25;101319.88;1704060;83;21545;-71
2022/02/09 06:42:38;;;;;;;25.85;12.58;;;;;;;6.82;92.24;101322.91;1704890;84;21486;-71
2022/02/09 06:45:12;;;;;;;17.65;9.90;;;;;;;6.81;92.25;101319.88;1694816;84;22031;-71
2022/02/09 06:47:34;;;;;;;16.70;9.87;;;;;;;6.82;92.23;101313.62;1704661;83;20989;-71
2022/02/09 06:50:04;;;;;;;12.20;9.38;;;;;;;6.82;92.24;101318.92;1705002;82;21050;-71
2022/02/09 06:52:28;;;;;;;15.05;11.53;;;;;;;6.82;92.25;101322.91;1704770;83;21009;-72
2022/02/09 06:55:12;;;;;;;14.60;9.38;;;;;;;6.83;92.26;101329.39;1704866;83;21502;-71
2022/02/09 06:57:57;;;;;;;15.28;10.75;;;;;;;6.84;92.26;101326.27;1704790;83;21455;-71
2022/02/09 07:00:03;;;;;;;14.05;9.30;;;;;;;6.86;92.28;101324.34;1703202;84;21018;-71
2022/02/09 07:02:29;;;;;;;14.55;9.65;;;;;;;6.86;92.29;101315.88;1704935;83;21498;-71
2022/02/09 07:04:55;;;;;;;14.68;9.13;;;;;;;6.87;92.30;101313.60;1704873;84;21041;-71
2022/02/09 07:07:21;;;;;;;19.90;10.08;;;;;;;6.89;92.32;101305.54;1704810;84;21722;-71
2022/02/09 07:09:48;;;;;;;17.30;10.50;;;;;;;6.90;92.31;101307.20;1704234;83;21073;-71
2022/02/09 07:12:14;;;;;;;13.65;9.88;;;;;;;6.89;92.33;101316.14;1705546;83;20982;-71
2022/02/09 07:14:40;;;;;;;14.45;9.28;;;;;;;6.90;92.34;101303.22;1723449;83;20877;-71
2022/02/09 07:17:06;;;;;;;14.13;8.65;;;;;;;6.90;92.33;101300.57;1723780;83;21033;-71
2022/02/09 07:19:33;;;;;;;12.60;8.28;;;;;;;6.90;92.33;101305.88;1723621;81;21013;-70
2022/02/09 07:21:59;;;;;;;13.15;9.20;;;;;;;6.91;92.35;101308.41;1723667;83;21139;-71
2022/02/09 07:24:26;;;;;;;12.90;7.53;;;;;;;6.91;92.33;101315.05;1723682;83;20988;-71
2022/02/09 07:27:55;;;;;;;13.13;8.58;;;;;;;6.91;92.32;101307.56;1723848;82;21607;-71
2022/02/09 07:29:30;;;;;;;13.05;7.92;;;;;;;6.92;92.33;101308.78;1692323;83;20985;-71
2022/02/09 07:31:56;;;;;;;12.85;8.78;;;;;;;6.96;92.33;101305.41;1723745;82;20988;-71
2022/02/09 07:34:22;;;;;;;18.57;8.48;;;;;;;6.98;92.35;101302.13;1723884;82;21176;-71
2022/02/09 07:36:48;;;;;;;15.85;8.90;;;;;;;6.99;92.36;101293.22;1723742;82;21052;-71
2022/02/09 07:39:14;;;;;;;13.15;8.73;;;;;;;6.99;92.34;101300.69;1723804;83;20965;-71
2022/02/09 07:41:43;;;;;;;12.20;8.38;;;;;;;7.01;92.34;101304.52;1723724;83;21450;-71
2022/02/09 07:47:03;;;;;;;11.15;6.97;;;;;;;7.04;92.34;101297.64;1723392;83;21131;-71
2022/02/09 07:49:49;;;;;;;13.15;8.30;;;;;;;7.08;92.33;101300.41;1720592;82;21005;-71
2022/02/09 07:52:00;;;;;;;16.30;11.00;;;;;;;7.13;92.33;101298.23;1719964;83;21082;-71
2022/02/09 07:54:24;;;;;;;12.73;7.42;;;;;;;7.18;92.35;101302.66;1722461;82;21071;-71
2022/02/09 07:56:50;;;;;;;13.15;8.08;;;;;;;7.22;92.34;101296.62;1723593;83;20988;-71
2022/02/09 07:59:16;;;;;;;15.83;8.70;;;;;;;7.23;92.33;101296.50;1723686;83;21152;-71
2022/02/09 08:01:43;;;;;;;14.38;9.38;;;;;;;7.23;92.32;101288.55;1723588;83;20940;-71
2022/02/09 08:04:09;;;;;;;24.60;15.85;;;;;;;7.24;92.29;101282.77;1723497;83;21008;-71
2022/02/09 08:06:37;;;;;;;23.80;15.90;;;;;;;7.26;92.29;101277.67;1723408;82;21055;-71
2022/02/09 08:09:10;;;;;;;15.63;10.03;;;;;;;7.32;92.28;101279.81;1722180;81;21170;-71
2022/02/09 08:11:45;;;;;;;22.48;14.85;;;;;;;7.35;92.25;101279.55;1738172;81;21182;-71
2022/02/09 08:23:36;;;;;;;13.72;10.32;;;;;;;7.58;92.16;101282.10;1701158;84;21075;-71
2022/02/09 08:27:45;;;;;;;13.68;9.78;;;;;;;7.66;92.09;101279.66;1710904;82;21050;-71
2022/02/09 08:35:27;;;;;;;12.50;8.53;;;;;;;7.81;91.97;101261.11;1738200;81;21485;-71
2022/02/09 08:37:57;;;;;;;11.48;8.10;;;;;;;7.81;91.90;101270.40;1735119;82;21880;-71
2022/02/09 08:40:22;;;;;;;11.53;8.08;;;;;;;7.83;91.82;101264.45;1749255;81;20973;-71
2022/02/09 08:42:48;;;;;;;13.75;8.88;;;;;;;7.82;91.72;101265.42;1735210;82;21020;-71
2022/02/09 08:45:14;;;;;;;12.47;9.63;;;;;;;7.83;91.67;101271.09;1734298;82;20976;-71
2022/02/09 08:47:40;;;;;;;24.12;11.28;;;;;;;7.82;91.59;101270.25;1734679;82;20985;-71
2022/02/09 08:50:07;;;;;;;19.50;9.28;;;;;;;7.84;91.50;101274.12;1734515;82;21438;-71
2022/02/09 08:52:34;;;;;;;36.63;13.75;;;;;;;7.84;91.41;101268.33;1734590;82;20985;-71
2022/02/09 08:55:00;;;;;;;19.10;11.50;;;;;;;7.86;91.35;101265.52;1734728;82;20989;-71
2022/02/09 08:57:27;;;;;;;11.33;7.70;;;;;;;7.89;91.28;101281.19;1734555;82;21332;-71
2022/02/09 08:59:53;;;;;;;16.62;9.98;;;;;;;7.89;91.19;101273.22;1734397;82;20997;-71
2022/02/09 09:02:23;;;;;;;16.90;8.60;;;;;;;7.90;91.13;101278.89;1734604;82;21130;-71
2022/02/09 09:04:52;;;;;;;11.55;7.12;;;;;;;7.91;91.05;101276.61;1746690;81;21100;-71
2022/02/09 09:07:21;;;;;;;9.75;7.28;;;;;;;7.90;90.99;101277.56;1735816;81;21480;-71
2022/02/09 09:09:53;;;;;;;11.03;6.50;;;;;;;7.91;90.93;101277.93;1736958;81;21028;-71
2022/02/09 10:03:35;;;;;;;9.33;6.20;;;;;;;8.49;89.04;101265.28;1713088;82;21596;-72
2022/02/09 10:30:58;;;;;;;7.42;4.90;;;;;;;8.41;88.53;101271.75;1593064;89;21127;-71
2022/02/09 10:34:01;;;;;;;9.28;7.90;;;;;;;8.32;87.70;101289.84;1725846;83;21062;-72
2022/02/09 10:36:27;;;;;;;6.90;4.90;;;;;;;8.27;87.56;101284.03;1737582;81;21081;-71
2022/02/09 10:39:07;;;;;;;6.53;5.22;;;;;;;8.24;87.50;101272.83;1726373;83;21022;-72
2022/02/09 10:41:40;;;;;;;13.15;7.70;;;;;;;8.20;87.43;101274.91;1714711;81;21022;-72
2022/02/09 10:44:21;;;;;;;12.75;7.28;;;;;;;8.17;87.32;101277.84;1714694;83;21059;-71
2022/02/09 10:46:55;;;;;;;6.72;5.45;;;;;;;8.18;87.29;101274.22;1716114;82;21014;-71
2022/02/09 10:49:24;;;;;;;15.53;8.75;;;;;;;8.18;87.25;101271.56;1727324;82;21566;-71
2022/02/09 10:52:06;;;;;;;11.70;6.58;;;;;;;8.16;87.21;101272.20;1704434;84;21066;-71
2022/02/09 10:54:21;;;;;;;7.30;5.55;;;;;;;8.13;87.16;101267.63;1682264;85;21013;-72
2022/02/09 10:56:54;;;;;;;9.23;6.25;;;;;;;8.10;87.11;101267.87;1685074;85;21095;-72
2022/02/09 10:59:22;;;;;;;6.75;4.97;;;;;;;8.08;87.10;101265.37;1685030;85;21077;-71
2022/02/09 11:01:48;;;;;;;12.45;6.33;;;;;;;8.08;87.10;101275.99;1685204;85;21371;-71
2022/02/09 11:04:14;;;;;;;7.12;5.08;;;;;;;8.08;87.05;101273.34;1692754;84;21022;-71
2022/02/09 11:06:43;;;;;;;13.43;8.48;;;;;;;8.09;87.05;101265.73;1720946;82;20998;-71
2022/02/09 11:09:11;;;;;;;11.93;7.20;;;;;;;8.12;87.07;101265.46;1742549;80;21129;-71
2022/02/09 11:11:39;;;;;;;10.78;7.65;;;;;;;8.13;87.05;101259.66;1738898;80;21006;-71
2022/02/09 11:14:07;;;;;;;7.00;5.00;;;;;;;8.14;87.04;101259.52;1760645;80;21806;-71
2022/02/09 11:16:34;;;;;;;6.90;4.97;;;;;;;8.14;87.00;101262.17;1754207;80;21089;-71
2022/02/09 11:19:00;;;;;;;8.35;4.55;;;;;;;8.15;86.98;101258.55;1757578;80;21411;-72
2022/02/09 11:21:34;;;;;;;5.37;3.52;;;;;;;8.17;86.94;101253.92;1749449;82;20974;-72
2022/02/09 11:24:08;;;;;;;6.75;5.00;;;;;;;8.18;86.91;101252.97;1751268;82;21535;-72
2022/02/09 11:26:51;;;;;;;5.87;3.87;;;;;;;8.18;86.87;101247.65;1750068;82;21153;-72
2022/02/09 11:32:24;;;;;;;8.13;5.22;;;;;;;8.18;86.78;101228.20;1748268;80;21015;-72
2022/02/09 11:35:05;;;;;;;8.25;4.45;;;;;;;8.17;86.74;101232.67;1721481;82;21061;-72
2022/02/09 11:43:35;;;;;;;5.83;3.50;;;;;;;8.23;86.53;101227.33;1716121;82;21387;-72
2022/02/09 11:46:19;;;;;;;7.20;4.50;;;;;;;8.27;86.53;101223.44;1745043;82;21534;-71
2022/02/09 12:11:39;;;;;;;9.33;5.05;;;;;;;8.49;85.71;101210.78;1743205;82;21062;-71
2022/02/09 12:19:32;;;;;;;5.33;3.90;;;;;;;8.64;85.37;101203.74;1751120;80;21039;-71
2022/02/09 12:22:04;;;;;;;5.30;3.50;;;;;;;8.70;85.25;101204.52;1742645;80;21280;-71
2022/02/09 12:24:33;;;;;;;6.08;3.80;;;;;;;8.76;85.12;101213.29;1757854;80;21546;-71
2022/02/09 12:27:05;;;;;;;5.95;3.92;;;;;;;8.82;85.01;101208.73;1740584;82;20991;-71
2022/02/09 12:29:37;;;;;;;3.80;2.83;;;;;;;8.86;84.88;101213.66;1674285;84;21021;-71
2022/02/09 12:32:18;;;;;;;3.60;2.47;;;;;;;8.89;84.76;101199.22;1693876;84;21499;-71
2022/02/09 12:35:10;;;;;;;3.85;2.42;;;;;;;8.91;84.63;101196.77;1701442;84;21975;-71
2022/02/09 12:37:44;;;;;;;3.83;2.35;;;;;;;8.94;84.46;101187.66;1743496;81;21000;-72
2022/02/09 12:40:16;;;;;;;6.17;2.95;;;;;;;9.01;84.26;101178.13;1707837;83;21041;-71
2022/02/09 12:42:46;;;;;;;6.25;2.50;;;;;;;9.07;84.11;101182.08;1743100;80;21584;-71
2022/02/09 12:45:25;;;;;;;2.55;1.90;;;;;;;9.13;83.96;101189.00;1740879;81;21492;-71
2022/02/09 12:47:54;;;;;;;2.67;2.35;;;;;;;9.17;83.78;101180.23;1730121;82;21146;-71
2022/02/09 12:50:34;;;;;;;4.58;2.87;;;;;;;9.18;83.59;101176.61;1743234;82;21050;-72
2022/02/09 12:53:02;;;;;;;4.22;2.65;;;;;;;9.19;83.33;101180.92;1743468;81;21043;-71
2022/02/09 12:55:32;;;;;;;6.05;3.15;;;;;;;9.19;83.03;101180.92;1743165;82;21000;-71
2022/02/09 12:58:08;;;;;;;4.00;3.20;;;;;;;9.18;82.83;101182.77;1742768;80;21098;-71
2022/02/09 13:00:43;;;;;;;5.47;2.87;;;;;;;9.19;82.65;101183.09;1767332;80;21245;-71
2022/02/09 13:03:12;;;;;;;5.12;3.25;;;;;;;9.17;82.46;101175.77;1706085;84;20958;-71
2022/02/09 13:05:49;;;;;;;7.67;4.45;;;;;;;9.12;82.26;101183.80;1711722;83;21035;-71
2022/02/09 13:08:22;;;;;;;4.28;3.27;;;;;;;9.08;82.14;101177.92;1712117;83;21492;-71
2022/02/09 13:10:48;;;;;;;3.40;2.50;;;;;;;9.04;81.93;101177.88;1703706;82;20993;-71
2022/02/09 13:13:19;;;;;;;6.00;2.30;;;;;;;9.00;81.77;101173.33;1694245;84;21154;-71
2022/02/09 13:24:36;;;;;;;4.42;2.50;;;;;;;8.76;81.23;101175.55;1692948;84;21350;-71
2022/02/09 14:11:47;;;;;;;4.58;2.90;;;;;;;8.30;79.81;101153.58;1668066;84;21526;-71
2022/02/09 14:14:51;;;;;;;15.55;7.83;;;;;;;8.28;79.73;101159.53;1689963;84;21058;-71
2022/02/09 14:47:14;;;;;;;4.80;2.80;;;;;;;8.25;79.41;101155.80;1706802;83;21195;-71
2022/02/09 14:52:15;;;;;;;6.65;2.75;;;;;;;8.27;79.29;101153.83;1685093;84;21517;-71
2022/02/09 14:54:39;;;;;;;5.45;2.42;;;;;;;8.26;79.21;101157.48;1688253;83;21066;-71
2022/02/09 14:57:54;;;;;;;7.25;2.33;;;;;;;8.25;79.16;101153.14;1693041;83;21066;-71
2022/02/09 15:02:10;;;;;;;3.83;2.15;;;;;;;8.26;79.05;101164.61;1688373;85;21886;-71
2022/02/09 15:09:55;;;;;;;3.02;1.62;;;;;;;8.24;78.97;101166.06;1709357;84;21056;-70
2022/02/09 15:12:43;;;;;;;9.85;3.52;;;;;;;8.20;78.91;101168.64;1688045;84;21063;-71
2022/02/09 15:22:33;;;;;;;5.25;2.70;;;;;;;8.11;78.82;101157.98;1741945;82;21039;-71
2022/02/09 15:24:56;;;;;;;5.35;2.70;;;;;;;8.08;78.86;101156.45;1742553;81;21058;-71
2022/02/09 15:27:22;;;;;;;3.70;2.50;;;;;;;8.07;78.85;101168.05;1743160;82;21171;-71
2022/02/09 15:29:49;;;;;;;6.03;3.70;;;;;;;8.06;78.84;101155.73;1746741;80;20996;-71
2022/02/09 15:32:28;;;;;;;5.40;3.40;;;;;;;8.08;78.82;101159.59;1753209;80;20988;-71
2022/02/09 15:34:57;;;;;;;5.22;2.72;;;;;;;8.07;78.80;101157.42;1706663;83;21343;-71
2022/02/09 15:37:39;;;;;;;10.60;4.03;;;;;;;8.03;78.81;101156.84;1706078;83;21026;-71
2022/02/09 15:40:05;;;;;;;9.13;4.25;;;;;;;8.00;78.80;101155.80;1741013;81;21235;-71
2022/02/09 15:42:53;;;;;;;9.78;4.60;;;;;;;7.98;78.82;101150.27;1741536;82;21002;-72
2022/02/09 16:07:22;;;;;;;6.90;4.33;;;;;;;7.78;78.89;101150.67;1707824;84;21844;-71
2022/02/09 16:09:22;;;;;;;5.28;3.62;;;;;;;7.77;78.90;101149.02;1738621;81;21511;-71
2022/02/09 16:22:24;;;;;;;23.92;12.00;;;;;;;7.79;78.92;101143.55;1685112;85;21542;-71
2022/02/09 16:46:18;;;;;;;15.10;6.10;;;;;;;7.74;78.90;101157.73;1720060;83;21799;-71
2022/02/09 16:48:57;;;;;;;51.45;16.62;;;;;;;7.72;78.89;101150.37;1717396;83;21813;-71
2022/02/09 16:51:18;;;;;;;28.25;10.45;;;;;;;7.72;78.88;101155.67;1702374;83;20994;-71
2022/02/09 16:53:49;;;;;;;98.82;36.23;;;;;;;7.74;78.87;101156.41;1684492;83;21597;-71
2022/02/09 17:20:46;;;;;;;13.10;6.03;;;;;;;7.68;78.82;101166.20;1685098;85;21083;-71
2022/02/09 17:23:13;;;;;;;14.87;6.42;;;;;;;7.67;78.82;101169.34;1685054;85;21059;-71
2022/02/09 17:25:39;;;;;;;25.92;9.50;;;;;;;7.68;78.83;101176.82;1685282;85;21154;-71
2022/02/09 17:28:09;;;;;;;14.20;5.58;;;;;;;7.67;78.84;101163.22;1685022;85;21585;-71
2022/02/09 17:35:30;;;;;;;9.28;4.15;;;;;;;7.64;78.83;101164.30;1684898;85;21014;-71
2022/02/09 17:56:46;;;;;;;21.97;9.95;;;;;;;7.65;78.78;101161.16;1638585;83;21600;-71
2022/02/09 17:59:14;;;;;;;13.68;4.87;;;;;;;7.64;78.77;101160.80;1718925;81;21029;-72
2022/02/09 18:01:36;;;;;;;6.90;3.45;;;;;;;7.63;78.75;101163.97;1713735;81;21055;-71
2022/02/09 18:04:02;;;;;;;14.63;7.45;;;;;;;7.64;78.75;101166.11;1720870;81;21037;-72
2022/02/09 18:06:31;;;;;;;11.95;5.95;;;;;;;7.65;78.76;101173.11;1725959;81;21046;-72
2022/02/09 18:09:10;;;;;;;12.28;6.53;;;;;;;7.67;78.76;101173.83;1715315;82;21509;-72
2022/02/09 18:25:17;;;;;;;14.70;7.08;;;;;;;7.69;78.61;101170.55;1750754;80;21499;-73
2022/02/09 18:30:22;;;;;;;20.10;8.75;;;;;;;7.69;78.55;101174.05;1692084;84;21152;-72
2022/02/09 18:43:35;;;;;;;14.10;7.97;;;;;;;7.67;78.49;101168.02;1725767;80;21574;-72
2022/02/09 18:46:07;;;;;;;17.10;7.37;;;;;;;7.67;78.47;101175.16;1747038;80;20983;-72
2022/02/09 19:17:29;;;;;;;10.95;5.20;;;;;;;7.68;78.32;101178.99;1681969;83;21019;-73
2022/02/09 19:20:01;;;;;;;8.73;4.67;;;;;;;7.70;78.31;101177.55;1712762;83;21030;-72
2022/02/09 19:30:40;;;;;;;12.40;6.40;;;;;;;7.70;78.25;101173.56;1647957;86;21599;-72
2022/02/09 19:49:10;;;;;;;12.93;6.90;;;;;;;7.75;78.12;101193.91;1726801;82;21074;-72
2022/02/09 19:51:40;;;;;;;10.98;5.62;;;;;;;7.76;78.13;101187.62;1709700;83;21065;-72
2022/02/09 19:54:10;;;;;;;10.45;5.15;;;;;;;7.74;78.11;101186.94;1718110;82;21055;-73
2022/02/09 19:56:30;;;;;;;6.47;4.12;;;;;;;7.75;78.10;101185.45;1645170;87;21045;-72
2022/02/09 19:59:02;;;;;;;11.57;4.72;;;;;;;7.74;78.08;101185.61;1635475;87;21051;-73
2022/02/09 20:01:34;;;;;;;9.63;5.70;;;;;;;7.73;78.08;101184.77;1710938;82;21086;-72
2022/02/09 20:03:55;;;;;;;8.23;6.05;;;;;;;7.75;78.05;101188.59;1675828;84;21048;-73
2022/02/09 20:06:21;;;;;;;14.07;8.75;;;;;;;7.74;78.05;101193.06;1693791;83;21070;-73
2022/02/09 20:08:47;;;;;;;9.83;6.28;;;;;;;7.75;78.04;101188.59;1666842;86;21075;-73
2022/02/09 20:11:16;;;;;;;16.48;8.08;;;;;;;7.76;78.05;101195.59;1685304;84;21520;-73
2022/02/09 20:13:42;;;;;;;13.13;6.95;;;;;;;7.77;78.07;101194.63;1679290;84;21302;-72
2022/02/09 20:16:08;;;;;;;17.25;8.35;;;;;;;7.77;78.05;101197.28;1680950;83;21050;-73
2022/02/09 20:18:35;;;;;;;19.20;10.23;;;;;;;7.76;78.04;101187.62;1684616;84;21520;-72
2022/02/09 20:21:01;;;;;;;17.37;9.30;;;;;;;7.77;78.04;101193.30;1684379;85;20927;-72
2022/02/09 20:23:33;;;;;;;13.95;7.03;;;;;;;7.76;78.03;101192.94;1704014;84;21022;-73
2022/02/09 20:25:55;;;;;;;9.23;6.05;;;;;;;7.74;78.01;101193.57;1703030;84;21247;-73
2022/02/09 20:28:22;;;;;;;10.35;5.85;;;;;;;7.73;78.00;101191.40;1670920;85;21062;-72
2022/02/09 20:30:56;;;;;;;10.43;6.35;;;;;;;7.72;78.00;101188.86;1684334;84;21519;-73
2022/02/09 20:33:21;;;;;;;13.45;6.90;;;;;;;7.74;78.00;101189.59;1719203;81;21566;-72
2022/02/09 20:35:44;;;;;;;17.67;9.15;;;;;;;7.73;77.98;101188.75;1718188;83;21013;-73
2022/02/09 20:38:17;;;;;;;14.20;9.30;;;;;;;7.73;78.03;101195.86;1719432;83;21132;-73
2022/02/09 20:40:48;;;;;;;15.20;10.82;;;;;;;7.73;78.04;101188.75;1726298;81;20983;-72
2022/02/09 20:43:08;;;;;;;22.22;13.10;;;;;;;7.73;78.04;101194.05;1725248;82;21515;-72
2022/02/09 20:45:47;;;;;;;15.85;9.35;;;;;;;7.72;78.07;101191.52;1694901;84;21048;-73
2022/02/09 20:48:07;;;;;;;19.75;9.60;;;;;;;7.72;78.07;101187.05;1693665;83;21505;-73
2022/02/09 20:50:32;;;;;;;15.23;8.18;;;;;;;7.74;78.08;101193.57;1704860;82;21808;-72
2022/02/09 20:52:58;;;;;;;12.28;7.05;;;;;;;7.71;78.09;101195.14;1719464;82;21154;-73
2022/02/09 20:55:26;;;;;;;16.52;7.35;;;;;;;7.70;78.10;101193.48;1673540;84;21051;-72
2022/02/09 20:57:52;;;;;;;26.05;11.93;;;;;;;7.71;78.11;101197.79;1669926;85;21044;-72
2022/02/09 21:00:33;;;;;;;22.82;9.70;;;;;;;7.69;78.12;101196.61;1671562;85;21042;-73
2022/02/09 21:03:12;;;;;;;16.17;7.22;;;;;;;7.67;78.16;101195.07;1703484;82;21131;-73
2022/02/09 21:08:30;;;;;;;15.83;8.30;;;;;;;7.60;78.23;101192.59;1677074;84;21067;-72
2022/02/09 21:11:13;;;;;;;13.32;7.40;;;;;;;7.60;78.28;101205.86;1697821;83;21051;-72
2022/02/09 21:13:29;;;;;;;13.93;9.60;;;;;;;7.60;78.32;101199.22;1685312;83;21039;-72
2022/02/09 21:18:58;;;;;;;12.73;8.50;;;;;;;7.61;78.40;101203.06;1699121;84;21066;-72
2022/02/09 21:44:58;;;;;;;18.10;7.65;;;;;;;7.62;78.66;101199.92;1746882;80;21472;-72
2022/02/09 21:54:55;;;;;;;17.40;9.45;;;;;;;7.61;78.76;101195.58;1768813;81;21249;-72
2022/02/09 21:57:27;;;;;;;14.93;8.63;;;;;;;7.61;78.78;101199.55;1750448;82;21518;-72
2022/02/09 22:00:13;;;;;;;15.35;8.08;;;;;;;7.61;78.79;101200.41;1711042;82;21051;-72
2022/02/09 22:29:13;;;;;;;10.93;6.53;;;;;;;7.57;79.02;101192.82;1666353;85;21075;-72
2022/02/09 22:31:39;;;;;;;10.82;6.10;;;;;;;7.56;79.05;101192.01;1705159;82;21519;-72
2022/02/09 22:55:16;;;;;;;6.90;5.00;;;;;;;7.49;79.39;101181.05;1727172;81;21529;-72
2022/02/09 22:57:45;;;;;;;8.33;4.72;;;;;;;7.48;79.44;101178.55;1716251;81;21022;-72
2022/02/09 23:00:16;;;;;;;8.05;5.28;;;;;;;7.47;79.51;101175.05;1706650;83;21598;-72
2022/02/09 23:02:47;;;;;;;10.90;5.65;;;;;;;7.47;79.57;101167.08;1701220;82;21504;-72
2022/02/09 23:13:42;;;;;;;6.75;4.37;;;;;;;7.44;79.76;101161.20;1707301;82;21060;-72
2022/02/09 23:16:07;;;;;;;7.37;3.95;;;;;;;7.44;79.79;101158.06;1699692;84;20998;-72
2022/02/09 23:23:38;;;;;;;7.87;4.17;;;;;;;7.44;79.92;101163.37;1716227;82;21055;-72
2022/02/09 23:26:14;;;;;;;7.83;4.10;;;;;;;7.45;79.96;101157.09;1678453;85;21198;-72
2022/02/09 23:56:15;;;;;;;10.68;6.05;;;;;;;7.42;80.30;101150.70;1569608;91;21057;-72
